Time;durP1;ratioP1;P1;durP2;ratioP2;P2;SDS_P1;SDS_P2;PMS_P1;PMS_P2;Temp;Humidity;BMP_temperature;BMP_pressure;BME280_temperature;BME280_humidity;BME280_pressure;Samples;Min_cycle;Max_cycle;Signal;HPM_P1;HPM_P2
2024/03/08 00:01:48;;;;;;;7.20;3.63;;;;;;;5.90;77.88;99949.28;5115392;28;20079;-66
2024/03/08 00:04:17;;;;;;;2.13;1.95;;;;;;;5.86;77.72;99951.72;5115719;28;20168;-65
2024/03/08 00:06:46;;;;;;;1.42;1.33;;;;;;;5.89;78.32;99951.78;5115390;28;20046;-65
2024/03/08 00:09:15;;;;;;;1.95;1.85;;;;;;;5.94;78.54;99952.75;5115620;28;20031;-65
2024/03/08 00:11:44;;;;;;;2.60;2.42;;;;;;;5.95;78.57;99946.88;5115416;28;20035;-65
2024/03/08 00:14:13;;;;;;;2.85;2.60;;;;;;;5.94;78.45;99945.16;5114987;28;20165;-65
2024/03/08 00:16:43;;;;;;;2.87;2.67;;;;;;;5.93;78.67;99949.34;5114138;28;20075;-66
2024/03/08 00:19:13;;;;;;;3.60;2.25;;;;;;;5.90;78.80;99940.84;5115752;28;20287;-65
2024/03/08 00:21:42;;;;;;;2.05;1.90;;;;;;;5.89;78.35;99944.19;5114926;28;20170;-65
2024/03/08 00:24:12;;;;;;;4.05;2.25;;;;;;;5.88;78.76;99942.47;5113859;28;20040;-65
2024/03/08 00:26:41;;;;;;;1.67;1.58;;;;;;;5.90;78.47;99943.38;5113790;28;20089;-66
2024/03/08 00:29:10;;;;;;;5.47;2.25;;;;;;;5.90;78.71;99948.44;5096766;28;20101;-65
2024/03/08 00:31:40;;;;;;;3.00;1.70;;;;;;;5.80;78.37;99931.28;5114893;28;20035;-66
2024/03/08 00:34:11;;;;;;;1.58;1.48;;;;;;;5.90;78.82;99944.22;5096527;28;20043;-65
2024/03/08 00:36:42;;;;;;;2.45;2.25;;;;;;;5.93;78.82;99939.22;5114896;28;20055;-66
2024/03/08 00:39:11;;;;;;;8.98;2.85;;;;;;;5.93;78.67;99943.44;5114996;28;20048;-65
2024/03/08 00:41:40;;;;;;;3.20;2.97;;;;;;;5.89;78.79;99936.59;5114490;28;20039;-66
2024/03/08 00:44:10;;;;;;;2.20;2.00;;;;;;;5.93;78.82;99938.34;5113749;28;20089;-65
2024/03/08 00:46:39;;;;;;;3.90;2.78;;;;;;;5.91;79.10;99940.00;5114634;28;20038;-65
2024/03/08 00:49:08;;;;;;;2.63;2.42;;;;;;;5.87;79.14;99933.19;5114783;28;20043;-65
2024/03/08 00:51:37;;;;;;;1.27;1.17;;;;;;;5.87;79.32;99940.78;5114961;28;20052;-66
2024/03/08 00:54:07;;;;;;;3.67;3.38;;;;;;;5.86;79.04;99931.44;5114492;28;20098;-65
2024/03/08 00:56:39;;;;;;;2.67;2.47;;;;;;;5.88;79.35;99927.25;5114563;28;20051;-65
2024/03/08 00:59:08;;;;;;;2.47;2.28;;;;;;;5.90;79.57;99929.00;5114502;28;20047;-65
2024/03/08 01:01:37;;;;;;;2.33;2.15;;;;;;;5.90;79.46;99933.25;5114394;28;20379;-65
2024/03/08 01:04:07;;;;;;;2.10;1.95;;;;;;;5.90;79.62;99933.25;5114334;28;20103;-65
2024/03/08 01:06:37;;;;;;;6.57;3.88;;;;;;;5.81;80.16;99903.47;5114221;28;20046;-65
2024/03/08 01:09:07;;;;;;;2.33;2.15;;;;;;;5.99;80.73;99933.44;5114362;28;20046;-65
2024/03/08 01:11:37;;;;;;;1.85;1.33;;;;;;;6.01;80.49;99931.78;5114235;28;20052;-65
2024/03/08 01:14:06;;;;;;;3.20;2.25;;;;;;;5.96;80.60;99928.31;5114004;28;20038;-65
2024/03/08 01:16:35;;;;;;;1.30;1.20;;;;;;;5.94;80.46;99930.81;5114711;28;20074;-65
2024/03/08 01:19:04;;;;;;;1.52;1.42;;;;;;;5.88;80.85;99934.88;5114564;28;20036;-66
2024/03/08 01:21:34;;;;;;;6.40;3.95;;;;;;;5.86;80.42;99933.97;5114080;28;20032;-65
2024/03/08 01:24:02;;;;;;;1.80;1.70;;;;;;;5.74;80.24;99936.22;5113210;28;20130;-66
2024/03/08 01:26:34;;;;;;;3.67;1.73;;;;;;;5.64;80.34;99934.31;5114115;28;20036;-66
2024/03/08 01:29:03;;;;;;;4.40;3.40;;;;;;;5.51;80.52;99914.59;5112718;28;20048;-66
2024/03/08 01:31:32;;;;;;;4.07;2.50;;;;;;;5.59;80.55;99928.28;5114394;28;20409;-65
2024/03/08 01:34:01;;;;;;;3.22;1.38;;;;;;;5.62;81.14;99925.81;5114150;28;20572;-65
2024/03/08 01:36:30;;;;;;;3.20;2.80;;;;;;;5.55;81.11;99932.41;5113527;28;20043;-65
2024/03/08 01:38:59;;;;;;;1.60;1.50;;;;;;;5.46;81.37;99932.19;5114094;28;20036;-65
2024/03/08 01:41:29;;;;;;;;;;;;;;;5.42;81.59;99927.91;5114354;28;20032;-65
2024/03/08 01:44:00;;;;;;;2.75;2.17;;;;;;;5.38;81.95;99926.09;5114047;28;19919;-65
2024/03/08 01:46:29;;;;;;;3.28;2.97;;;;;;;5.49;81.99;99932.28;5112225;28;20044;-65
2024/03/08 01:48:58;;;;;;;8.98;2.53;;;;;;;5.42;81.57;99907.66;5113709;28;20050;-65
2024/03/08 01:51:28;;;;;;;3.45;2.28;;;;;;;5.49;82.14;99918.75;5112992;28;20134;-65
2024/03/08 01:53:58;;;;;;;3.85;3.45;;;;;;;5.53;82.11;99915.47;5113970;28;20047;-65
2024/03/08 01:56:27;;;;;;;7.63;2.72;;;;;;;5.52;82.45;99926.44;5113662;28;20052;-65
2024/03/08 01:58:56;;;;;;;0.67;0.67;;;;;;;5.54;82.31;99919.72;5113876;28;20040;-65
2024/03/08 02:01:28;;;;;;;1.05;1.00;;;;;;;5.45;82.20;99919.53;5113676;28;20032;-64
2024/03/08 02:03:57;;;;;;;2.00;1.80;;;;;;;5.39;82.64;99913.50;5113713;28;20134;-64
2024/03/08 02:06:26;;;;;;;1.83;1.73;;;;;;;5.34;82.52;99912.53;5113731;28;20032;-65
2024/03/08 02:08:55;;;;;;;2.08;1.88;;;;;;;5.26;82.43;99886.19;5114137;28;20040;-65
2024/03/08 02:11:24;;;;;;;2.55;2.35;;;;;;;5.46;82.59;99917.03;5113415;28;20134;-65
2024/03/08 02:13:53;;;;;;;2.60;2.38;;;;;;;5.42;82.81;99918.59;5114060;28;20036;-65
2024/03/08 02:16:22;;;;;;;1.48;1.38;;;;;;;5.44;82.80;99916.13;5113679;28;20134;-65
2024/03/08 02:18:53;;;;;;;2.17;1.90;;;;;;;5.49;82.79;99913.69;5113396;28;20497;-65
2024/03/08 02:21:24;;;;;;;1.95;1.77;;;;;;;5.49;82.91;99912.03;5113407;28;20513;-65
2024/03/08 02:23:52;;;;;;;3.47;2.78;;;;;;;5.46;83.23;99914.50;5115673;28;20039;-65
2024/03/08 02:26:22;;;;;;;3.05;2.72;;;;;;;5.49;83.52;99913.69;5117326;28;20042;-66
2024/03/08 02:28:51;;;;;;;;;;;;;;;5.50;83.72;99916.25;5117451;28;20508;-65
2024/03/08 02:31:20;;;;;;;1.27;1.17;;;;;;;5.43;83.39;99920.34;5117288;28;19919;-65
2024/03/08 02:33:49;;;;;;;6.93;2.33;;;;;;;5.36;84.05;99915.94;5117339;28;20096;-65
2024/03/08 02:36:19;;;;;;;5.00;1.73;;;;;;;5.35;84.21;99916.75;5117200;28;20047;-65
2024/03/08 02:38:50;;;;;;;4.88;1.77;;;;;;;5.35;84.34;99916.75;5117101;28;20039;-65
2024/03/08 02:41:19;;;;;;;12.65;2.70;;;;;;;5.40;84.69;99917.72;5116759;28;20054;-66
2024/03/08 02:43:47;;;;;;;4.03;2.80;;;;;;;5.36;84.81;99913.41;5117033;28;20039;-65
2024/03/08 02:46:16;;;;;;;8.93;3.57;;;;;;;5.32;84.84;99910.78;5115499;28;20036;-65
2024/03/08 02:48:45;;;;;;;1.75;1.65;;;;;;;5.32;84.59;99916.69;5115453;28;20097;-65
2024/03/08 02:51:15;;;;;;;1.35;1.25;;;;;;;5.28;84.97;99909.84;5116953;28;20070;-65
2024/03/08 02:53:45;;;;;;;3.97;3.50;;;;;;;5.33;85.21;99923.47;5115468;28;20048;-65
2024/03/08 02:56:16;;;;;;;2.87;2.67;;;;;;;5.35;85.67;99918.44;5116510;28;20043;-65
2024/03/08 02:58:48;;;;;;;1.10;1.00;;;;;;;5.38;85.45;99921.91;5116450;28;20051;-65
2024/03/08 03:01:20;;;;;;;3.08;2.63;;;;;;;5.41;85.97;99921.97;5115447;28;20432;-65
2024/03/08 03:03:49;;;;;;;2.25;1.50;;;;;;;5.42;86.06;99918.59;5116915;28;20051;-65
2024/03/08 03:06:18;;;;;;;5.75;4.05;;;;;;;5.40;86.33;99920.25;5115254;28;20035;-65
2024/03/08 03:08:47;;;;;;;4.40;3.88;;;;;;;5.43;86.25;99925.38;5115496;28;20044;-65
2024/03/08 03:11:17;;;;;;;3.33;1.45;;;;;;;5.47;86.35;99925.47;5116582;28;20096;-65
2024/03/08 03:13:47;;;;;;;9.45;2.00;;;;;;;5.45;86.35;99912.75;5117117;28;20048;-65
2024/03/08 03:16:20;;;;;;;1.77;1.67;;;;;;;5.45;86.52;99914.47;5116318;28;20036;-65
2024/03/08 03:18:49;;;;;;;3.85;2.95;;;;;;;5.39;86.50;99923.63;5116395;27;20062;-65
2024/03/08 03:21:18;;;;;;;3.17;2.20;;;;;;;5.36;86.73;99923.53;5116401;28;20066;-65
2024/03/08 03:23:48;;;;;;;1.42;1.33;;;;;;;5.34;86.71;99920.13;5116327;28;20046;-65
2024/03/08 03:26:18;;;;;;;;;;;;;;;5.31;86.99;99920.03;5116674;28;20097;-65
2024/03/08 03:28:48;;;;;;;1.85;1.73;;;;;;;5.32;86.86;99920.91;5113934;28;19926;-65
2024/03/08 03:31:18;;;;;;;;;;;;;;;5.28;87.11;99917.44;5116581;28;20047;-65
2024/03/08 03:33:47;;;;;;;1.67;1.52;;;;;;;5.32;87.21;99916.69;5116123;28;20331;-65
2024/03/08 03:36:16;;;;;;;1.92;1.83;;;;;;;5.30;87.15;99918.31;5116038;28;20031;-65
2024/03/08 03:38:45;;;;;;;1.65;1.55;;;;;;;5.33;87.36;99918.41;5116199;28;20043;-65
2024/03/08 03:41:14;;;;;;;3.87;2.83;;;;;;;5.34;87.54;99919.25;5114732;28;20043;-65
2024/03/08 03:43:44;;;;;;;2.58;2.28;;;;;;;5.39;87.61;99913.50;5115594;28;20085;-65
2024/03/08 03:46:13;;;;;;;2.53;2.00;;;;;;;5.39;87.86;99923.63;5115958;28;20490;-65
2024/03/08 03:48:42;;;;;;;2.67;2.33;;;;;;;5.44;87.51;99921.19;5115819;28;20516;-65
2024/03/08 03:51:11;;;;;;;2.83;2.55;;;;;;;5.46;88.05;99916.16;5114517;28;20486;-65
2024/03/08 03:53:40;;;;;;;2.60;2.03;;;;;;;5.45;87.33;99932.19;5115374;28;20084;-65
2024/03/08 03:56:10;;;;;;;9.27;2.33;;;;;;;5.43;88.14;99919.47;5113455;28;20291;-65
2024/03/08 03:58:39;;;;;;;1.55;1.30;;;;;;;5.47;87.93;99920.41;5115281;28;20047;-65
2024/03/08 04:01:10;;;;;;;3.27;2.83;;;;;;;5.52;87.83;99918.84;5115535;28;20039;-65
2024/03/08 04:03:43;;;;;;;4.78;1.90;;;;;;;5.53;88.04;99925.59;5115157;28;20039;-65
2024/03/08 04:06:12;;;;;;;7.55;4.43;;;;;;;5.47;87.82;99930.53;5114379;28;20477;-65
2024/03/08 04:08:41;;;;;;;0.93;0.93;;;;;;;5.47;87.87;99917.88;5097091;28;20139;-65
2024/03/08 04:11:10;;;;;;;3.03;1.97;;;;;;;5.52;87.76;99918.84;5113904;28;20349;-65
2024/03/08 04:13:39;;;;;;;2.45;2.25;;;;;;;5.51;88.01;99920.50;5115613;28;20044;-65
2024/03/08 04:16:11;;;;;;;2.42;1.25;;;;;;;5.53;88.12;99920.53;5095972;28;20044;-65
2024/03/08 04:18:40;;;;;;;4.35;3.60;;;;;;;5.54;87.96;99924.78;5115541;28;20370;-65
2024/03/08 04:21:09;;;;;;;2.67;2.08;;;;;;;5.56;88.25;99920.63;5115060;28;20063;-65
2024/03/08 04:23:38;;;;;;;3.17;2.58;;;;;;;5.60;88.10;99919.84;5114862;28;20062;-65
2024/03/08 04:26:08;;;;;;;1.15;1.10;;;;;;;5.55;87.78;99913.81;5114751;28;20088;-65
2024/03/08 04:28:39;;;;;;;3.08;1.88;;;;;;;5.59;88.15;99920.69;5115400;28;20047;-65
2024/03/08 04:31:10;;;;;;;1.17;1.08;;;;;;;5.57;88.22;99924.84;5115499;28;20428;-65
2024/03/08 04:33:39;;;;;;;2.45;1.83;;;;;;;5.48;87.85;99922.09;5114609;28;20044;-65
2024/03/08 04:36:13;;;;;;;2.53;2.33;;;;;;;5.50;87.67;99920.47;5114815;28;20119;-65
2024/03/08 04:38:42;;;;;;;4.15;3.78;;;;;;;5.43;87.91;99920.34;5113461;28;20044;-65
2024/03/08 04:41:11;;;;;;;6.68;4.22;;;;;;;5.39;87.42;99922.75;5114677;28;20032;-65
2024/03/08 04:43:40;;;;;;;1.55;1.45;;;;;;;5.35;87.05;99921.81;5114584;28;20205;-65
2024/03/08 04:46:10;;;;;;;3.77;2.93;;;;;;;5.34;87.04;99920.13;5114278;28;20035;-65
2024/03/08 04:48:41;;;;;;;3.17;2.42;;;;;;;5.33;87.31;99923.47;5113549;28;20065;-65
2024/03/08 04:51:11;;;;;;;2.55;2.35;;;;;;;5.38;87.41;99921.91;5113812;28;20056;-65
2024/03/08 04:53:40;;;;;;;3.33;2.13;;;;;;;5.42;87.05;99918.59;5114266;28;20051;-65
2024/03/08 04:56:09;;;;;;;2.23;2.00;;;;;;;5.42;87.30;99920.31;5114385;28;20039;-65
2024/03/08 04:58:38;;;;;;;1.95;1.77;;;;;;;5.43;86.87;99929.59;5114601;28;20039;-65
2024/03/08 05:01:10;;;;;;;2.95;2.75;;;;;;;5.37;86.78;99924.41;5114184;28;20058;-65
2024/03/08 05:03:40;;;;;;;1.25;1.15;;;;;;;5.34;86.93;99925.19;5113105;28;20039;-65
2024/03/08 05:06:09;;;;;;;2.92;2.33;;;;;;;5.32;86.50;99926.81;5114417;28;20062;-65
2024/03/08 05:08:38;;;;;;;2.22;2.03;;;;;;;5.29;86.38;99926.75;5114093;28;20046;-64
2024/03/08 05:11:07;;;;;;;1.73;1.63;;;;;;;5.30;86.52;99928.44;5114099;28;20078;-65
2024/03/08 05:13:37;;;;;;;2.63;2.35;;;;;;;5.33;86.53;99930.19;5112986;28;20777;-64
2024/03/08 05:16:07;;;;;;;2.35;1.98;;;;;;;5.39;86.39;99928.69;5114114;28;20493;-65
2024/03/08 05:18:37;;;;;;;8.80;5.20;;;;;;;5.47;86.45;99935.59;5112971;28;20058;-65
2024/03/08 05:21:09;;;;;;;2.40;2.20;;;;;;;5.46;86.37;99942.31;5114283;28;20043;-65
2024/03/08 05:23:38;;;;;;;3.65;3.22;;;;;;;5.40;86.30;99930.38;5095783;28;20047;-64
2024/03/08 05:26:07;;;;;;;3.38;3.08;;;;;;;5.47;86.17;99943.19;5114228;28;20032;-65
2024/03/08 05:28:37;;;;;;;2.88;2.35;;;;;;;5.45;86.52;99942.31;5113648;28;20047;-65
2024/03/08 05:31:06;;;;;;;1.83;1.73;;;;;;;5.43;85.66;99945.63;5114514;28;20464;-65
2024/03/08 05:33:35;;;;;;;2.28;2.08;;;;;;;5.42;86.20;99943.91;5113755;28;20523;-65
2024/03/08 05:36:05;;;;;;;2.88;2.33;;;;;;;5.45;86.01;99942.31;5113799;28;20050;-65
2024/03/08 05:38:36;;;;;;;5.70;3.08;;;;;;;5.47;85.96;99935.59;5112867;28;20142;-65
2024/03/08 05:41:07;;;;;;;2.35;2.17;;;;;;;5.46;85.66;99944.00;5113833;28;20481;-64
2024/03/08 05:43:36;;;;;;;4.53;3.30;;;;;;;5.42;86.16;99943.91;5114057;28;20477;-65
2024/03/08 05:46:05;;;;;;;3.47;2.88;;;;;;;5.38;85.69;99941.28;5114073;28;20044;-65
2024/03/08 05:48:33;;;;;;;3.28;2.97;;;;;;;5.38;85.49;99942.13;5113660;28;20048;-64
2024/03/08 05:51:03;;;;;;;3.08;2.88;;;;;;;5.41;85.66;99947.28;5114211;28;20035;-64
2024/03/08 05:53:32;;;;;;;2.17;1.63;;;;;;;5.45;85.41;99952.44;5112795;28;20035;-64
2024/03/08 05:56:03;;;;;;;1.20;1.10;;;;;;;5.45;85.34;99950.72;5113614;28;20130;-65
2024/03/08 05:58:32;;;;;;;2.58;2.38;;;;;;;5.45;84.98;99952.44;5115185;28;20054;-65
2024/03/08 06:01:01;;;;;;;2.38;1.70;;;;;;;5.46;84.86;99951.59;5117638;28;20400;-65
2024/03/08 06:03:30;;;;;;;5.68;3.08;;;;;;;5.53;84.28;99951.78;5117754;28;20063;-65
2024/03/08 06:05:59;;;;;;;3.05;2.60;;;;;;;5.54;84.89;99950.97;5117625;28;20067;-65
2024/03/08 06:08:29;;;;;;;5.20;3.50;;;;;;;5.57;84.96;99955.22;5116454;28;20039;-65
2024/03/08 06:10:59;;;;;;;1.95;1.85;;;;;;;5.58;84.76;99952.75;5117706;28;20060;-65
2024/03/08 06:13:31;;;;;;;4.40;1.75;;;;;;;5.55;84.45;99954.31;5117555;28;20050;-65
2024/03/08 06:16:01;;;;;;;6.63;3.35;;;;;;;5.58;84.60;99951.88;5115961;28;20393;-65
2024/03/08 06:18:29;;;;;;;3.08;2.22;;;;;;;5.59;84.44;99941.78;5117460;28;20039;-65
2024/03/08 06:20:58;;;;;;;5.10;2.58;;;;;;;5.62;84.24;99953.66;5117500;28;20066;-65
2024/03/08 06:23:27;;;;;;;3.67;3.00;;;;;;;5.53;84.35;99945.84;5117297;28;20036;-65
2024/03/08 06:25:57;;;;;;;5.55;3.00;;;;;;;5.60;84.52;99952.75;5117737;28;20292;-64
2024/03/08 06:28:26;;;;;;;5.32;2.80;;;;;;;5.58;84.46;99949.34;5116155;28;20100;-64
2024/03/08 06:30:56;;;;;;;3.13;2.03;;;;;;;5.66;84.18;99957.97;5115718;28;20039;-65
2024/03/08 06:33:26;;;;;;;3.38;3.17;;;;;;;5.69;84.67;99958.03;5116951;28;20047;-65
2024/03/08 06:35:57;;;;;;;2.40;1.80;;;;;;;5.65;83.63;99961.31;5116907;28;20560;-64
2024/03/08 06:38:26;;;;;;;2.45;2.28;;;;;;;5.65;84.23;99956.25;5117406;28;20051;-65
2024/03/08 06:40:55;;;;;;;;;;;;;;;5.64;83.69;99964.69;5117166;28;20055;-65
2024/03/08 06:43:29;;;;;;;1.02;0.80;;;;;;;5.70;83.83;99960.63;5116558;28;19921;-65
2024/03/08 06:46:00;;;;;;;1.60;1.50;;;;;;;5.78;83.63;99965.88;5116977;28;20043;-65
2024/03/08 06:48:29;;;;;;;2.60;2.30;;;;;;;5.82;83.84;99960.03;5116936;28;20043;-65
2024/03/08 06:50:58;;;;;;;2.08;1.98;;;;;;;5.84;83.94;99963.47;5116556;28;20047;-65
2024/03/08 06:53:27;;;;;;;2.10;2.00;;;;;;;5.76;83.88;99944.72;5115509;28;20047;-65
2024/03/08 06:55:56;;;;;;;3.30;2.95;;;;;;;5.91;83.25;99967.88;5115645;28;20039;-65
2024/03/08 06:58:24;;;;;;;2.35;2.15;;;;;;;5.89;82.85;99966.97;5116973;28;20043;-65
2024/03/08 07:00:53;;;;;;;1.70;1.60;;;;;;;5.80;82.95;99969.28;5116960;28;20040;-66
2024/03/08 07:03:23;;;;;;;1.40;1.30;;;;;;;5.84;82.71;99974.47;5116890;28;20097;-65
2024/03/08 07:05:52;;;;;;;2.88;1.77;;;;;;;5.83;81.89;99971.91;5115860;28;20448;-65
2024/03/08 07:08:22;;;;;;;3.47;2.20;;;;;;;5.86;81.53;99971.97;5116146;28;20036;-65
2024/03/08 07:10:51;;;;;;;7.47;3.70;;;;;;;5.91;81.64;99970.41;5115309;28;20031;-65
2024/03/08 07:13:20;;;;;;;2.67;2.47;;;;;;;5.95;81.08;99972.19;5116446;28;20127;-65
2024/03/08 07:15:49;;;;;;;1.53;1.43;;;;;;;5.92;81.04;99967.06;5115786;28;20093;-65
2024/03/08 07:18:17;;;;;;;7.82;1.83;;;;;;;5.93;81.04;99968.75;5116680;27;20526;-65
2024/03/08 07:20:49;;;;;;;4.53;3.20;;;;;;;5.90;80.76;99969.53;5116284;28;20046;-65
2024/03/08 07:26:02;;;;;;;4.35;3.60;;;;;;;5.83;80.09;99966.81;5114095;28;20036;-65
2024/03/08 07:28:31;;;;;;;2.33;1.57;;;;;;;5.80;79.89;99966.75;5114699;28;20444;-65
2024/03/08 07:31:16;;;;;;;3.83;2.85;;;;;;;5.79;80.04;99967.56;5116192;28;20044;-64
2024/03/08 07:33:46;;;;;;;5.78;1.77;;;;;;;5.90;80.11;99961.09;5116032;28;20052;-65
2024/03/08 07:36:16;;;;;;;5.93;2.80;;;;;;;5.91;80.19;99965.34;5116353;28;20036;-64
2024/03/08 07:38:46;;;;;;;1.65;1.33;;;;;;;5.95;80.56;99969.66;5116085;28;20069;-65
2024/03/08 07:41:17;;;;;;;1.90;1.80;;;;;;;6.00;80.08;99970.59;5114676;28;20043;-65
2024/03/08 07:43:46;;;;;;;3.40;2.90;;;;;;;6.01;80.33;99970.66;5115269;28;20051;-65
2024/03/08 07:46:18;;;;;;;2.47;1.92;;;;;;;6.02;80.05;99968.97;5115425;28;20039;-65
2024/03/08 07:48:48;;;;;;;3.75;3.45;;;;;;;6.08;79.69;99969.97;5116061;28;20071;-65
2024/03/08 07:51:19;;;;;;;7.35;3.05;;;;;;;6.19;80.02;99970.16;5115386;28;20104;-65
2024/03/08 07:53:47;;;;;;;2.92;2.13;;;;;;;6.15;79.75;99960.81;5116121;28;20043;-65
2024/03/08 07:56:18;;;;;;;1.60;1.38;;;;;;;6.21;79.02;99975.28;5115974;28;20046;-65
2024/03/08 07:58:49;;;;;;;2.30;2.10;;;;;;;6.28;79.25;99972.06;5115549;28;20067;-65
2024/03/08 08:01:18;;;;;;;2.50;1.73;;;;;;;6.21;78.43;99960.09;5115237;28;20112;-65
2024/03/08 08:03:48;;;;;;;1.67;1.52;;;;;;;6.11;77.98;99969.16;5115378;28;20035;-65
2024/03/08 08:06:19;;;;;;;12.57;3.08;;;;;;;6.05;77.97;99969.03;5115248;27;20130;-65
2024/03/08 08:08:48;;;;;;;1.75;1.35;;;;;;;6.04;78.30;99967.34;5114005;28;20043;-65
2024/03/08 08:11:17;;;;;;;2.45;2.25;;;;;;;6.09;77.85;99966.59;5115012;28;20052;-65
2024/03/08 08:13:46;;;;;;;3.15;2.65;;;;;;;6.17;78.09;99971.81;5095060;28;20047;-65
2024/03/08 08:16:15;;;;;;;1.33;1.23;;;;;;;6.20;78.00;99964.28;5094691;28;20044;-65
2024/03/08 08:18:46;;;;;;;2.60;2.40;;;;;;;6.14;77.27;99964.19;5093295;28;20284;-65
2024/03/08 08:21:14;;;;;;;5.20;2.13;;;;;;;6.12;77.26;99965.81;5093714;28;20114;-65
2024/03/08 08:23:46;;;;;;;1.67;1.58;;;;;;;6.19;77.22;99972.69;5094749;28;20040;-65
2024/03/08 08:26:15;;;;;;;1.75;1.65;;;;;;;6.23;77.53;99973.63;5094470;28;20390;-65
2024/03/08 08:28:45;;;;;;;2.20;1.60;;;;;;;6.29;77.39;99969.53;5094639;28;20119;-65
2024/03/08 08:31:15;;;;;;;1.83;1.73;;;;;;;6.35;77.29;99969.69;5076431;28;20059;-65
2024/03/08 08:33:44;;;;;;;31.50;29.52;;;;;;;6.38;77.14;99973.97;5094572;28;20111;-65
2024/03/08 08:36:18;;;;;;;1.13;1.02;;;;;;;6.44;76.91;99963.94;5093470;28;20032;-65
2024/03/08 08:38:48;;;;;;;1.38;1.27;;;;;;;6.30;76.17;99951.00;5094349;28;20036;-65
2024/03/08 08:41:17;;;;;;;7.60;2.35;;;;;;;6.41;76.09;99963.88;5093272;28;20098;-65
2024/03/08 08:43:45;;;;;;;1.48;1.38;;;;;;;6.35;76.31;99969.69;5094299;28;20028;-65
2024/03/08 08:46:30;;;;;;;2.10;1.95;;;;;;;6.36;75.78;99960.41;5093910;28;20048;-65
2024/03/08 08:48:59;;;;;;;4.05;1.67;;;;;;;6.42;76.04;99961.38;5094672;28;20036;-65
2024/03/08 08:51:29;;;;;;;2.42;1.88;;;;;;;6.53;75.42;99959.03;5093970;28;20097;-65
2024/03/08 08:53:58;;;;;;;;;;;;;;;6.55;75.18;99959.97;5094502;28;20047;-65
2024/03/08 08:56:28;;;;;;;1.73;1.52;;;;;;;6.58;75.48;99965.06;5093895;28;19919;-65
2024/03/08 08:58:57;;;;;;;;;;;;;;;6.68;75.28;99960.22;5093971;28;20040;-64
2024/03/08 09:01:26;;;;;;;1.65;1.55;;;;;;;6.80;75.91;99963.78;5093589;28;20373;-64
2024/03/08 09:03:55;;;;;;;1.65;1.55;;;;;;;6.84;75.39;99960.50;5094074;28;20040;-64
2024/03/08 09:06:24;;;;;;;2.63;2.20;;;;;;;6.92;75.46;99964.03;5093574;28;20036;-64
2024/03/08 09:08:53;;;;;;;1.17;1.10;;;;;;;6.91;75.82;99962.34;5093688;28;20028;-64
2024/03/08 09:11:25;;;;;;;2.63;1.87;;;;;;;6.85;75.93;99967.28;5092906;28;20042;-64
2024/03/08 09:13:53;;;;;;;2.25;2.08;;;;;;;6.86;75.81;99949.56;5093989;28;20044;-64
2024/03/08 09:16:22;;;;;;;1.65;1.55;;;;;;;6.76;75.45;99942.59;5092731;28;20068;-64
2024/03/08 09:18:51;;;;;;;1.63;1.40;;;;;;;6.81;74.85;99950.31;5093875;28;20055;-64
2024/03/08 09:21:20;;;;;;;2.17;1.98;;;;;;;6.82;74.96;99942.72;5093925;28;20033;-64
2024/03/08 09:23:51;;;;;;;1.50;1.33;;;;;;;6.93;74.63;99950.53;5093887;28;20040;-64
2024/03/08 09:26:22;;;;;;;0.55;0.55;;;;;;;6.98;75.35;99943.84;5093435;28;20047;-64
2024/03/08 09:28:58;;;;;;;2.45;2.25;;;;;;;7.12;74.33;99950.03;5093562;28;20480;-64
2024/03/08 09:31:27;;;;;;;2.25;1.65;;;;;;;7.25;74.41;99946.84;5094904;28;20055;-64
2024/03/08 09:33:57;;;;;;;1.93;1.83;;;;;;;7.25;73.74;99949.38;5098295;28;20085;-64
2024/03/08 09:36:25;;;;;;;3.10;2.47;;;;;;;7.30;74.66;99945.25;5097859;28;20044;-64
2024/03/08 09:38:54;;;;;;;0.77;0.77;;;;;;;7.35;74.19;99947.03;5097966;28;20512;-64
2024/03/08 09:41:24;;;;;;;4.60;2.28;;;;;;;7.30;73.69;99942.69;5096529;28;20054;-64
2024/03/08 09:43:53;;;;;;;1.27;1.17;;;;;;;7.27;73.71;99952.81;5097785;28;20042;-64
2024/03/08 09:46:25;;;;;;;2.03;1.83;;;;;;;7.37;73.70;99949.59;5097523;28;20314;-64
2024/03/08 09:48:55;;;;;;;3.33;2.25;;;;;;;7.43;74.67;99955.63;5097576;28;20059;-64
2024/03/08 09:51:30;;;;;;;2.17;1.52;;;;;;;7.34;74.77;99944.47;5097543;28;20036;-64
2024/03/08 09:53:59;;;;;;;3.63;3.10;;;;;;;7.35;73.91;99956.31;5097877;28;20059;-64
2024/03/08 09:56:34;;;;;;;2.28;2.08;;;;;;;7.38;74.24;99954.72;5097589;28;20074;-64
2024/03/08 09:59:40;;;;;;;2.30;2.10;;;;;;;7.33;73.95;99952.91;5096066;28;20556;-64
2024/03/08 10:02:16;;;;;;;1.95;1.77;;;;;;;6.99;74.08;99889.72;5097387;28;20036;-64
2024/03/08 10:04:47;;;;;;;2.63;2.22;;;;;;;7.36;73.53;99950.44;5097135;28;20051;-64
2024/03/08 10:07:16;;;;;;;2.17;1.52;;;;;;;7.42;74.11;99958.13;5096847;28;20047;-64
2024/03/08 10:09:49;;;;;;;1.95;1.80;;;;;;;7.41;73.99;99957.28;5095860;28;20409;-64
2024/03/08 10:12:19;;;;;;;2.40;2.03;;;;;;;7.44;74.12;99956.47;5095851;28;20040;-64
2024/03/08 10:14:52;;;;;;;9.55;2.67;;;;;;;7.48;74.51;99958.25;5096939;28;20076;-64
2024/03/08 10:17:46;;;;;;;1.58;1.45;;;;;;;7.48;74.19;99953.16;5077069;28;20512;-64
2024/03/08 10:20:16;;;;;;;4.43;2.90;;;;;;;7.50;74.44;99964.19;5096990;28;20058;-64
2024/03/08 10:22:48;;;;;;;4.60;1.90;;;;;;;7.52;74.34;99960.00;5096108;28;20494;-64
2024/03/08 10:25:52;;;;;;;5.35;2.53;;;;;;;7.59;74.86;99966.03;5096901;28;20040;-64
2024/03/08 10:28:25;;;;;;;3.38;1.70;;;;;;;7.65;74.42;99967.00;5095920;28;20048;-64
2024/03/08 10:30:59;;;;;;;2.40;2.20;;;;;;;7.62;74.99;99961.00;5095758;28;20056;-64
2024/03/08 10:33:31;;;;;;;1.67;1.58;;;;;;;7.62;74.53;99971.16;5096819;28;20102;-64
2024/03/08 10:36:04;;;;;;;2.25;2.05;;;;;;;7.62;74.87;99971.16;5097081;28;20486;-64
2024/03/08 10:38:46;;;;;;;3.55;2.20;;;;;;;7.65;74.28;99967.00;5097070;28;20362;-64
2024/03/08 10:41:20;;;;;;;5.13;2.92;;;;;;;7.67;74.30;99965.31;5096814;28;20386;-65
2024/03/08 10:44:12;;;;;;;3.55;3.22;;;;;;;7.66;74.87;99966.13;5095902;28;20036;-65
2024/03/08 10:47:00;;;;;;;2.58;2.13;;;;;;;7.69;74.35;99961.13;5094967;28;20044;-64
2024/03/08 10:49:39;;;;;;;3.72;3.10;;;;;;;7.66;74.66;99963.59;5096221;28;20050;-64
2024/03/08 10:52:28;;;;;;;1.52;0.90;;;;;;;7.68;74.66;99966.19;5093900;28;20389;-64
2024/03/08 10:55:01;;;;;;;1.25;1.15;;;;;;;7.66;74.58;99962.75;5095428;28;20048;-64
2024/03/08 10:57:31;;;;;;;1.35;1.27;;;;;;;7.68;74.44;99961.94;5096284;28;20092;-64
2024/03/08 11:00:26;;;;;;;2.50;2.17;;;;;;;7.68;74.34;99967.00;5081012;28;20124;-64
2024/03/08 11:02:56;;;;;;;2.88;1.98;;;;;;;7.65;74.17;99955.97;5095048;28;20043;-64
2024/03/08 11:05:43;;;;;;;;;;;;;;;7.64;73.86;99955.09;5096682;28;20040;-64
2024/03/08 11:08:22;;;;;;;;;;;;;;;7.58;74.62;99951.63;5096675;28;19920;-64
2024/03/08 11:10:53;;;;;;;2.65;2.45;;;;;;;7.63;74.51;99950.03;5095096;28;20023;-64
2024/03/08 11:13:42;;;;;;;2.15;1.95;;;;;;;7.67;74.48;99954.31;5096085;28;20071;-63
2024/03/08 11:16:12;;;;;;;3.67;2.17;;;;;;;7.69;75.08;99953.50;5095673;28;20052;-64
2024/03/08 11:18:41;;;;;;;4.80;3.20;;;;;;;7.66;75.07;99948.38;5095930;28;20075;-64
2024/03/08 11:21:12;;;;;;;0.93;0.88;;;;;;;7.61;74.98;99939.81;5095888;28;20094;-64
2024/03/08 11:23:44;;;;;;;4.72;3.25;;;;;;;7.68;75.35;99949.22;5094769;28;20048;-64
2024/03/08 11:26:20;;;;;;;3.20;2.63;;;;;;;7.70;75.31;99945.03;5095647;28;20044;-64
2024/03/08 11:28:51;;;;;;;1.80;1.67;;;;;;;7.71;74.96;99950.97;5095821;28;20055;-64
2024/03/08 11:31:26;;;;;;;3.33;2.33;;;;;;;7.62;75.17;99936.47;5094770;28;20090;-63
2024/03/08 11:34:04;;;;;;;1.70;1.60;;;;;;;7.67;75.49;99944.13;5094332;28;20147;-64
2024/03/08 11:36:40;;;;;;;2.38;1.88;;;;;;;7.67;nan;99945.00;5095716;28;20124;-64
2024/03/08 11:39:14;;;;;;;3.10;2.83;;;;;;;7.69;75.67;99943.34;5095167;28;20051;-64
2024/03/08 11:41:45;;;;;;;3.70;3.17;;;;;;;7.69;75.44;99937.41;5095611;28;20501;-64
2024/03/08 11:44:16;;;;;;;3.25;2.72;;;;;;;7.68;75.11;99931.44;5095974;28;20048;-64
2024/03/08 11:46:56;;;;;;;5.00;2.03;;;;;;;7.74;76.12;99931.56;5094840;28;20076;-64
2024/03/08 11:49:26;;;;;;;2.78;2.53;;;;;;;7.79;75.21;99935.03;5095316;28;20159;-64
2024/03/08 11:51:57;;;;;;;2.22;2.08;;;;;;;7.82;75.48;99934.22;5093915;28;20052;-64
2024/03/08 11:54:29;;;;;;;2.70;2.50;;;;;;;7.80;75.06;99926.53;5094372;28;20076;-64
2024/03/08 11:57:01;;;;;;;3.58;3.05;;;;;;;7.88;75.74;99929.19;5093341;28;20040;-64
2024/03/08 11:59:30;;;;;;;;;;;;;;;7.93;75.69;99925.03;5095113;28;20470;-65
2024/03/08 12:02:03;;;;;;;3.70;2.53;;;;;;;7.98;75.95;99925.97;5095058;28;20019;-64
2024/03/08 12:04:41;;;;;;;3.85;2.92;;;;;;;8.01;75.26;99921.75;5086951;28;20123;-65